Degray, Arkansas
Current Conditions -  °F | °C
As of 3:56 PM on Monday 20 Oct 2014 (Local Time) from KADF Reporting Station
Broken Clouds Broken Clouds  
Wind Chill: 72°   Ceiling: 4100
Heat Index: 72°   Visibility: 10mi
Dew Point: 59°   Wind: 3mph
Humidity: 64%   Direction: 300°WNW
Pressure: 30.05"   Gusts: NA
Location:  34.0941°N, 93.0475°W
Report Text: KADF 202056Z AUTO 30003KT 10SM BKN041 22/15 A3005 RMK AO2 56014 60000 T02220150 SLP190
Loading
Personal Weather Stations






























Interactive Weather Map
Tropical Storm Tracking
New forecast layout! Learn more

10-Day Weather Forecast

Advertisements
Track Severe Weather on mobile